sensor_id;sensor_type;location;lat;lon;timestamp;temperature;humidity
6740;DHT22;3407;49.882;10.920;2022-09-21T00:00:49;7.10;35.40
6740;DHT22;3407;49.882;10.920;2022-09-21T00:05:45;7.10;34.30
6740;DHT22;3407;49.882;10.920;2022-09-21T00:10:40;7.10;35.70
6740;DHT22;3407;49.882;10.920;2022-09-21T00:15:38;7.00;36.80
6740;DHT22;3407;49.882;10.920;2022-09-21T00:20:34;7.00;41.10
6740;DHT22;3407;49.882;10.920;2022-09-21T00:25:29;7.10;49.70
6740;DHT22;3407;49.882;10.920;2022-09-21T00:30:25;7.30;53.60
6740;DHT22;3407;49.882;10.920;2022-09-21T00:35:20;7.30;49.50
6740;DHT22;3407;49.882;10.920;2022-09-21T00:40:16;7.20;47.30
6740;DHT22;3407;49.882;10.920;2022-09-21T00:45:12;7.20;49.50
6740;DHT22;3407;49.882;10.920;2022-09-21T00:50:19;7.10;48.70
6740;DHT22;3407;49.882;10.920;2022-09-21T00:55:21;7.10;50.70
6740;DHT22;3407;49.882;10.920;2022-09-21T01:00:18;7.00;47.00
6740;DHT22;3407;49.882;10.920;2022-09-21T01:05:14;6.90;49.30
6740;DHT22;3407;49.882;10.920;2022-09-21T01:10:12;6.90;51.40
6740;DHT22;3407;49.882;10.920;2022-09-21T01:30:53;6.50;47.90
6740;DHT22;3407;49.882;10.920;2022-09-21T01:35:58;6.60;52.20
6740;DHT22;3407;49.882;10.920;2022-09-21T01:40:59;6.60;55.00
6740;DHT22;3407;49.882;10.920;2022-09-21T01:45:58;6.70;55.30
6740;DHT22;3407;49.882;10.920;2022-09-21T01:50:57;6.80;56.40
6740;DHT22;3407;49.882;10.920;2022-09-21T01:55:59;6.80;58.20
6740;DHT22;3407;49.882;10.920;2022-09-21T02:00:56;6.80;55.40
6740;DHT22;3407;49.882;10.920;2022-09-21T02:05:52;6.80;53.90
6740;DHT22;3407;49.882;10.920;2022-09-21T02:10:50;6.80;53.10
6740;DHT22;3407;49.882;10.920;2022-09-21T02:16:04;6.80;50.90
6740;DHT22;3407;49.882;10.920;2022-09-21T02:21:14;6.70;49.90
6740;DHT22;3407;49.882;10.920;2022-09-21T02:26:16;6.70;49.60
6740;DHT22;3407;49.882;10.920;2022-09-21T02:36:45;6.80;49.80
6740;DHT22;3407;49.882;10.920;2022-09-21T02:42:00;6.70;45.90
6740;DHT22;3407;49.882;10.920;2022-09-21T02:47:07;6.70;49.50
6740;DHT22;3407;49.882;10.920;2022-09-21T02:52:08;6.70;48.70
6740;DHT22;3407;49.882;10.920;2022-09-21T02:57:06;6.70;49.80
6740;DHT22;3407;49.882;10.920;2022-09-21T03:02:02;6.70;51.50
6740;DHT22;3407;49.882;10.920;2022-09-21T03:06:59;6.80;51.50
6740;DHT22;3407;49.882;10.920;2022-09-21T03:11:54;6.60;49.90
6740;DHT22;3407;49.882;10.920;2022-09-21T03:16:51;6.50;48.00
6740;DHT22;3407;49.882;10.920;2022-09-21T03:21:46;6.40;47.90
6740;DHT22;3407;49.882;10.920;2022-09-21T03:26:42;6.40;52.90
6740;DHT22;3407;49.882;10.920;2022-09-21T03:31:37;6.40;54.10
6740;DHT22;3407;49.882;10.920;2022-09-21T03:36:33;6.50;55.80
6740;DHT22;3407;49.882;10.920;2022-09-21T03:41:28;6.50;55.70
6740;DHT22;3407;49.882;10.920;2022-09-21T03:46:24;6.50;56.30
6740;DHT22;3407;49.882;10.920;2022-09-21T03:51:19;6.50;55.60
6740;DHT22;3407;49.882;10.920;2022-09-21T03:56:15;6.50;56.30
6740;DHT22;3407;49.882;10.920;2022-09-21T04:01:10;6.50;55.60
6740;DHT22;3407;49.882;10.920;2022-09-21T04:06:08;6.40;53.20
6740;DHT22;3407;49.882;10.920;2022-09-21T04:11:12;6.40;52.70
6740;DHT22;3407;49.882;10.920;2022-09-21T04:16:09;6.40;54.60
6740;DHT22;3407;49.882;10.920;2022-09-21T04:21:05;6.30;53.10
6740;DHT22;3407;49.882;10.920;2022-09-21T04:26:01;6.40;53.80
6740;DHT22;3407;49.882;10.920;2022-09-21T04:30:57;6.40;53.20
6740;DHT22;3407;49.882;10.920;2022-09-21T04:35:55;6.40;53.00
6740;DHT22;3407;49.882;10.920;2022-09-21T04:40:57;6.40;52.20
6740;DHT22;3407;49.882;10.920;2022-09-21T04:45:52;6.40;54.30
6740;DHT22;3407;49.882;10.920;2022-09-21T04:50:49;6.50;54.40
6740;DHT22;3407;49.882;10.920;2022-09-21T04:55:44;6.40;53.20
6740;DHT22;3407;49.882;10.920;2022-09-21T05:00:40;6.40;53.70
6740;DHT22;3407;49.882;10.920;2022-09-21T05:05:36;6.40;53.70
6740;DHT22;3407;49.882;10.920;2022-09-21T05:10:31;6.40;52.30
6740;DHT22;3407;49.882;10.920;2022-09-21T05:15:27;6.40;53.30
6740;DHT22;3407;49.882;10.920;2022-09-21T05:20:22;6.50;53.00
6740;DHT22;3407;49.882;10.920;2022-09-21T05:25:18;6.50;50.90
6740;DHT22;3407;49.882;10.920;2022-09-21T05:30:14;6.40;47.70
6740;DHT22;3407;49.882;10.920;2022-09-21T05:35:27;6.40;45.30
6740;DHT22;3407;49.882;10.920;2022-09-21T05:40:26;6.30;41.20
6740;DHT22;3407;49.882;10.920;2022-09-21T05:45:22;6.30;38.80
6740;DHT22;3407;49.882;10.920;2022-09-21T05:50:54;6.20;35.50
6740;DHT22;3407;49.882;10.920;2022-09-21T05:56:03;6.30;36.20
6740;DHT22;3407;49.882;10.920;2022-09-21T06:06:08;6.40;31.90
6740;DHT22;3407;49.882;10.920;2022-09-21T06:11:04;6.50;29.20
6740;DHT22;3407;49.882;10.920;2022-09-21T06:16:03;6.60;25.40
6740;DHT22;3407;49.882;10.920;2022-09-21T06:20:59;6.70;26.50
6740;DHT22;3407;49.882;10.920;2022-09-21T06:25:55;6.80;23.80
6740;DHT22;3407;49.882;10.920;2022-09-21T06:30:52;6.80;23.40
6740;DHT22;3407;49.882;10.920;2022-09-21T06:35:52;7.00;23.60
6740;DHT22;3407;49.882;10.920;2022-09-21T06:40:48;7.10;13.30
6740;DHT22;3407;49.882;10.920;2022-09-21T06:45:55;7.10;15.00
6740;DHT22;3407;49.882;10.920;2022-09-21T06:50:54;7.30;14.60
6740;DHT22;3407;49.882;10.920;2022-09-21T06:55:50;7.40;11.80
6740;DHT22;3407;49.882;10.920;2022-09-21T07:00:46;7.60;8.40
6740;DHT22;3407;49.882;10.920;2022-09-21T07:05:44;7.40;1.00
6740;DHT22;3407;49.882;10.920;2022-09-21T07:10:40;7.40;11.10
6740;DHT22;3407;49.882;10.920;2022-09-21T07:15:36;7.60;12.30
6740;DHT22;3407;49.882;10.920;2022-09-21T07:20:32;7.60;1.00
6740;DHT22;3407;49.882;10.920;2022-09-21T07:25:28;7.60;1.00
6740;DHT22;3407;49.882;10.920;2022-09-21T07:30:23;7.80;1.00
6740;DHT22;3407;49.882;10.920;2022-09-21T07:35:19;7.90;1.00
6740;DHT22;3407;49.882;10.920;2022-09-21T07:40:15;8.00;1.00
6740;DHT22;3407;49.882;10.920;2022-09-21T07:45:10;8.20;1.00
6740;DHT22;3407;49.882;10.920;2022-09-21T07:50:06;8.10;1.00
6740;DHT22;3407;49.882;10.920;2022-09-21T07:55:01;8.40;1.00
6740;DHT22;3407;49.882;10.920;2022-09-21T07:59:57;8.70;1.00
6740;DHT22;3407;49.882;10.920;2022-09-21T08:04:53;8.60;1.00
6740;DHT22;3407;49.882;10.920;2022-09-21T08:09:49;8.60;1.00
6740;DHT22;3407;49.882;10.920;2022-09-21T08:14:46;8.80;1.00
6740;DHT22;3407;49.882;10.920;2022-09-21T08:19:42;9.20;1.00
6740;DHT22;3407;49.882;10.920;2022-09-21T08:24:37;9.30;1.00
6740;DHT22;3407;49.882;10.920;2022-09-21T08:29:33;9.60;1.00
6740;DHT22;3407;49.882;10.920;2022-09-21T08:34:30;9.80;1.00
6740;DHT22;3407;49.882;10.920;2022-09-21T08:39:26;9.90;1.00
6740;DHT22;3407;49.882;10.920;2022-09-21T08:44:42;10.10;1.00
6740;DHT22;3407;49.882;10.920;2022-09-21T08:49:40;10.10;99.90
6740;DHT22;3407;49.882;10.920;2022-09-21T08:54:48;10.30;1.00
6740;DHT22;3407;49.882;10.920;2022-09-21T08:59:48;10.80;99.90
6740;DHT22;3407;49.882;10.920;2022-09-21T09:15:37;12.00;1.00
6740;DHT22;3407;49.882;10.920;2022-09-21T09:20:37;12.30;1.00
6740;DHT22;3407;49.882;10.920;2022-09-21T09:25:40;12.30;99.90
6740;DHT22;3407;49.882;10.920;2022-09-21T09:30:36;12.40;99.90
6740;DHT22;3407;49.882;10.920;2022-09-21T09:35:56;13.00;99.90
6740;DHT22;3407;49.882;10.920;2022-09-21T09:51:19;13.00;1.00
6740;DHT22;3407;49.882;10.920;2022-09-21T09:56:17;13.20;1.00
6740;DHT22;3407;49.882;10.920;2022-09-21T10:01:39;13.30;99.90
6740;DHT22;3407;49.882;10.920;2022-09-21T10:06:36;13.70;1.00
6740;DHT22;3407;49.882;10.920;2022-09-21T10:11:36;14.60;99.90
6740;DHT22;3407;49.882;10.920;2022-09-21T10:16:39;16.00;93.70
6740;DHT22;3407;49.882;10.920;2022-09-21T10:21:36;16.30;1.00
6740;DHT22;3407;49.882;10.920;2022-09-21T10:26:43;16.00;1.00
6740;DHT22;3407;49.882;10.920;2022-09-21T10:36:53;14.70;1.00
6740;DHT22;3407;49.882;10.920;2022-09-21T10:42:02;14.80;1.00
6740;DHT22;3407;49.882;10.920;2022-09-21T10:47:02;14.80;1.00
6740;DHT22;3407;49.882;10.920;2022-09-21T10:52:07;15.30;1.00
6740;DHT22;3407;49.882;10.920;2022-09-21T10:57:09;15.20;1.00
6740;DHT22;3407;49.882;10.920;2022-09-21T11:23:40;21.50;99.90
6740;DHT22;3407;49.882;10.920;2022-09-21T11:28:45;23.10;99.90
6740;DHT22;3407;49.882;10.920;2022-09-21T11:59:39;27.20;93.20
6740;DHT22;3407;49.882;10.920;2022-09-21T12:05:11;26.70;90.90
6740;DHT22;3407;49.882;10.920;2022-09-21T12:10:35;26.90;90.10
6740;DHT22;3407;49.882;10.920;2022-09-21T12:21:11;27.30;87.70
6740;DHT22;3407;49.882;10.920;2022-09-21T12:26:10;26.50;68.70
6740;DHT22;3407;49.882;10.920;2022-09-21T12:31:19;26.40;73.30
6740;DHT22;3407;49.882;10.920;2022-09-21T12:36:26;26.30;74.20
6740;DHT22;3407;49.882;10.920;2022-09-21T12:41:36;25.80;67.70
6740;DHT22;3407;49.882;10.920;2022-09-21T12:46:55;25.70;69.90
6740;DHT22;3407;49.882;10.920;2022-09-21T12:52:03;25.10;68.50
6740;DHT22;3407;49.882;10.920;2022-09-21T13:02:30;24.90;69.50
6740;DHT22;3407;49.882;10.920;2022-09-21T13:07:44;24.70;66.20
6740;DHT22;3407;49.882;10.920;2022-09-21T13:12:45;24.00;64.60
6740;DHT22;3407;49.882;10.920;2022-09-21T13:17:42;24.00;63.70
6740;DHT22;3407;49.882;10.920;2022-09-21T13:22:37;24.40;66.90
6740;DHT22;3407;49.882;10.920;2022-09-21T13:28:00;24.90;66.20
6740;DHT22;3407;49.882;10.920;2022-09-21T13:32:56;25.10;65.50
6740;DHT22;3407;49.882;10.920;2022-09-21T13:39:13;25.20;63.80
6740;DHT22;3407;49.882;10.920;2022-09-21T13:48:52;23.30;56.20
6740;DHT22;3407;49.882;10.920;2022-09-21T13:53:53;24.00;64.40
6740;DHT22;3407;49.882;10.920;2022-09-21T13:58:53;24.80;60.80
6740;DHT22;3407;49.882;10.920;2022-09-21T14:03:54;23.90;56.10
6740;DHT22;3407;49.882;10.920;2022-09-21T14:09:00;24.60;58.70
6740;DHT22;3407;49.882;10.920;2022-09-21T14:24:21;25.40;55.20
6740;DHT22;3407;49.882;10.920;2022-09-21T14:34:35;23.30;52.70
6740;DHT22;3407;49.882;10.920;2022-09-21T14:39:37;23.20;51.30
6740;DHT22;3407;49.882;10.920;2022-09-21T14:44:35;22.60;53.20
6740;DHT22;3407;49.882;10.920;2022-09-21T15:00:19;19.20;59.70
6740;DHT22;3407;49.882;10.920;2022-09-21T15:05:35;18.50;64.30
6740;DHT22;3407;49.882;10.920;2022-09-21T15:10:35;18.20;68.00
6740;DHT22;3407;49.882;10.920;2022-09-21T15:16:15;17.70;70.50
6740;DHT22;3407;49.882;10.920;2022-09-21T15:21:44;17.20;74.90
6740;DHT22;3407;49.882;10.920;2022-09-21T15:26:40;17.00;85.30
6740;DHT22;3407;49.882;10.920;2022-09-21T15:31:39;16.70;91.90
6740;DHT22;3407;49.882;10.920;2022-09-21T15:36:37;16.40;94.70
6740;DHT22;3407;49.882;10.920;2022-09-21T15:46:29;15.90;96.40
6740;DHT22;3407;49.882;10.920;2022-09-21T15:51:33;15.80;97.20
6740;DHT22;3407;49.882;10.920;2022-09-21T15:56:34;15.80;99.90
6740;DHT22;3407;49.882;10.920;2022-09-21T16:01:44;15.80;99.90
6740;DHT22;3407;49.882;10.920;2022-09-21T16:07:21;15.70;99.90
6740;DHT22;3407;49.882;10.920;2022-09-21T16:17:28;15.60;99.90
6740;DHT22;3407;49.882;10.920;2022-09-21T16:22:45;15.50;99.90
6740;DHT22;3407;49.882;10.920;2022-09-21T16:27:52;15.40;99.90
6740;DHT22;3407;49.882;10.920;2022-09-21T16:32:48;15.20;99.90
6740;DHT22;3407;49.882;10.920;2022-09-21T16:37:44;15.10;99.90
6740;DHT22;3407;49.882;10.920;2022-09-21T16:42:39;14.90;99.90
6740;DHT22;3407;49.882;10.920;2022-09-21T16:47:38;14.70;99.90
6740;DHT22;3407;49.882;10.920;2022-09-21T16:52:34;14.60;99.90
6740;DHT22;3407;49.882;10.920;2022-09-21T16:57:29;14.50;99.90
6740;DHT22;3407;49.882;10.920;2022-09-21T17:02:26;14.30;99.90
6740;DHT22;3407;49.882;10.920;2022-09-21T17:07:22;14.10;99.90
6740;DHT22;3407;49.882;10.920;2022-09-21T17:12:17;13.90;99.90
6740;DHT22;3407;49.882;10.920;2022-09-21T17:22:09;13.40;1.00
6740;DHT22;3407;49.882;10.920;2022-09-21T17:27:11;13.20;99.90
6740;DHT22;3407;49.882;10.920;2022-09-21T17:32:09;12.90;1.00
6740;DHT22;3407;49.882;10.920;2022-09-21T17:37:05;12.70;99.90
6740;DHT22;3407;49.882;10.920;2022-09-21T17:42:03;12.30;99.90
6740;DHT22;3407;49.882;10.920;2022-09-21T17:52:14;11.90;1.00
6740;DHT22;3407;49.882;10.920;2022-09-21T17:57:36;11.60;76.80
6740;DHT22;3407;49.882;10.920;2022-09-21T18:02:35;11.40;1.00
6740;DHT22;3407;49.882;10.920;2022-09-21T18:07:31;11.30;99.90
6740;DHT22;3407;49.882;10.920;2022-09-21T18:12:48;11.10;1.00
6740;DHT22;3407;49.882;10.920;2022-09-21T18:17:58;11.10;1.00
6740;DHT22;3407;49.882;10.920;2022-09-21T18:23:24;10.90;1.00
6740;DHT22;3407;49.882;10.920;2022-09-21T18:33:26;10.60;1.00
6740;DHT22;3407;49.882;10.920;2022-09-21T18:38:38;10.50;1.00
6740;DHT22;3407;49.882;10.920;2022-09-21T18:43:53;10.30;1.00
6740;DHT22;3407;49.882;10.920;2022-09-21T18:49:03;10.20;1.00
6740;DHT22;3407;49.882;10.920;2022-09-21T18:54:00;10.10;1.00
6740;DHT22;3407;49.882;10.920;2022-09-21T18:58:56;10.00;1.00
6740;DHT22;3407;49.882;10.920;2022-09-21T19:03:52;9.80;1.00
6740;DHT22;3407;49.882;10.920;2022-09-21T19:09:02;9.70;1.00
6740;DHT22;3407;49.882;10.920;2022-09-21T19:24:28;9.40;1.00
6740;DHT22;3407;49.882;10.920;2022-09-21T19:30:01;9.30;1.00
6740;DHT22;3407;49.882;10.920;2022-09-21T19:35:10;9.20;1.00
6740;DHT22;3407;49.882;10.920;2022-09-21T19:40:08;9.10;1.00
6740;DHT22;3407;49.882;10.920;2022-09-21T19:45:13;8.90;1.00
6740;DHT22;3407;49.882;10.920;2022-09-21T19:50:15;8.90;1.00
6740;DHT22;3407;49.882;10.920;2022-09-21T19:55:19;8.80;1.00
6740;DHT22;3407;49.882;10.920;2022-09-21T20:00:33;8.70;1.00
6740;DHT22;3407;49.882;10.920;2022-09-21T20:06:00;8.50;1.00
6740;DHT22;3407;49.882;10.920;2022-09-21T20:16:20;8.30;1.00
6740;DHT22;3407;49.882;10.920;2022-09-21T20:21:19;8.30;1.00
6740;DHT22;3407;49.882;10.920;2022-09-21T20:31:22;8.20;1.00
6740;DHT22;3407;49.882;10.920;2022-09-21T20:36:18;8.10;1.00
6740;DHT22;3407;49.882;10.920;2022-09-21T20:41:15;7.90;1.00
6740;DHT22;3407;49.882;10.920;2022-09-21T20:46:11;7.90;1.00
6740;DHT22;3407;49.882;10.920;2022-09-21T20:51:06;7.90;1.00
6740;DHT22;3407;49.882;10.920;2022-09-21T20:56:02;7.90;1.00
6740;DHT22;3407;49.882;10.920;2022-09-21T21:01:05;7.80;1.00
6740;DHT22;3407;49.882;10.920;2022-09-21T21:06:11;7.70;1.00
6740;DHT22;3407;49.882;10.920;2022-09-21T21:11:08;7.70;1.00
6740;DHT22;3407;49.882;10.920;2022-09-21T21:16:05;7.60;1.00
6740;DHT22;3407;49.882;10.920;2022-09-21T21:21:02;7.60;1.00
6740;DHT22;3407;49.882;10.920;2022-09-21T21:26:03;7.60;1.00
6740;DHT22;3407;49.882;10.920;2022-09-21T21:30:58;7.30;1.00
6740;DHT22;3407;49.882;10.920;2022-09-21T21:35:54;7.20;1.00
6740;DHT22;3407;49.882;10.920;2022-09-21T21:40:54;7.10;1.00
6740;DHT22;3407;49.882;10.920;2022-09-21T21:45:52;7.10;1.00
6740;DHT22;3407;49.882;10.920;2022-09-21T21:50:48;7.00;1.00
6740;DHT22;3407;49.882;10.920;2022-09-21T21:55:44;6.90;1.00
6740;DHT22;3407;49.882;10.920;2022-09-21T22:00:39;6.90;1.00
6740;DHT22;3407;49.882;10.920;2022-09-21T22:05:35;6.80;1.00
6740;DHT22;3407;49.882;10.920;2022-09-21T22:10:30;6.70;1.00
6740;DHT22;3407;49.882;10.920;2022-09-21T22:15:26;6.70;1.00
6740;DHT22;3407;49.882;10.920;2022-09-21T22:20:24;6.60;1.00
6740;DHT22;3407;49.882;10.920;2022-09-21T22:25:19;6.60;1.00
6740;DHT22;3407;49.882;10.920;2022-09-21T22:30:15;6.50;1.00
6740;DHT22;3407;49.882;10.920;2022-09-21T22:35:10;6.50;1.00
6740;DHT22;3407;49.882;10.920;2022-09-21T22:40:06;6.30;1.00
6740;DHT22;3407;49.882;10.920;2022-09-21T22:45:02;6.20;1.00
6740;DHT22;3407;49.882;10.920;2022-09-21T22:49:58;6.10;1.00
6740;DHT22;3407;49.882;10.920;2022-09-21T22:54:53;6.10;1.00
6740;DHT22;3407;49.882;10.920;2022-09-21T22:59:49;6.10;1.00
6740;DHT22;3407;49.882;10.920;2022-09-21T23:04:44;6.10;1.00
6740;DHT22;3407;49.882;10.920;2022-09-21T23:09:40;6.10;1.00
6740;DHT22;3407;49.882;10.920;2022-09-21T23:14:35;6.10;1.00
6740;DHT22;3407;49.882;10.920;2022-09-21T23:19:31;6.00;1.00
6740;DHT22;3407;49.882;10.920;2022-09-21T23:24:26;5.80;1.00
6740;DHT22;3407;49.882;10.920;2022-09-21T23:29:22;5.70;1.00
6740;DHT22;3407;49.882;10.920;2022-09-21T23:34:17;5.70;1.00
6740;DHT22;3407;49.882;10.920;2022-09-21T23:39:14;5.60;1.00
6740;DHT22;3407;49.882;10.920;2022-09-21T23:44:10;5.60;1.00
6740;DHT22;3407;49.882;10.920;2022-09-21T23:49:05;5.60;1.00
6740;DHT22;3407;49.882;10.920;2022-09-21T23:54:02;5.50;1.00
6740;DHT22;3407;49.882;10.920;2022-09-21T23:58:58;5.40;1.00
